createdAt,value
2022-10-24T00:02:00.236Z,11.55
2022-10-24T00:04:06.694Z,11.56
2022-10-24T00:06:12.432Z,11.52
2022-10-24T00:08:17.105Z,11.50
2022-10-24T00:10:22.083Z,11.51
2022-10-24T00:12:26.003Z,11.50
2022-10-24T00:14:29.993Z,11.49
2022-10-24T00:16:33.704Z,11.49
2022-10-24T00:18:37.722Z,11.47
2022-10-24T00:22:47.690Z,11.44
2022-10-24T00:24:51.413Z,11.42
2022-10-24T00:26:55.306Z,11.41
2022-10-24T00:28:59.008Z,11.38
2022-10-24T00:31:03.594Z,11.34
2022-10-24T00:33:07.275Z,11.34
2022-10-24T00:35:12.335Z,11.32
2022-10-24T00:37:17.661Z,11.31
2022-10-24T00:39:21.417Z,11.32
2022-10-24T00:41:27.573Z,11.33
2022-10-24T00:43:31.428Z,11.34
2022-10-24T00:45:45.944Z,11.36
2022-10-24T00:47:50.044Z,11.36
2022-10-24T00:50:01.034Z,11.37
2022-10-24T00:52:09.435Z,11.38
2022-10-24T00:54:16.517Z,11.40
2022-10-24T00:56:23.134Z,11.41
2022-10-24T00:58:29.231Z,11.43
2022-10-24T01:00:35.641Z,11.42
2022-10-24T01:02:40.365Z,11.42
2022-10-24T01:04:45.182Z,11.41
2022-10-24T01:06:59.894Z,11.40
2022-10-24T01:09:16.761Z,11.38
2022-10-24T01:11:37.438Z,11.35
2022-10-24T01:13:51.847Z,11.33
2022-10-24T01:16:02.229Z,11.30
2022-10-24T01:18:12.449Z,11.26
2022-10-24T01:20:58.753Z,11.22
2022-10-24T01:23:40.235Z,11.20
2022-10-24T01:25:59.767Z,11.18
2022-10-24T01:28:09.278Z,11.18
2022-10-24T01:30:15.934Z,11.17
2022-10-24T01:32:32.368Z,11.17
2022-10-24T01:34:44.833Z,11.17
2022-10-24T01:36:56.401Z,11.16
2022-10-24T01:39:05.412Z,11.12
2022-10-24T01:41:12.541Z,11.08
2022-10-24T01:43:19.750Z,11.05
2022-10-24T01:45:30.593Z,11.01
2022-10-24T01:47:40.951Z,10.97
2022-10-24T01:49:53.045Z,10.97
2022-10-24T01:52:02.175Z,10.95
2022-10-24T01:54:06.551Z,10.91
2022-10-24T01:56:10.387Z,10.91
2022-10-24T01:58:13.976Z,10.91
2022-10-24T02:00:20.591Z,10.90
2022-10-24T02:02:30.419Z,10.91
2022-10-24T02:04:36.070Z,10.92
2022-10-24T02:06:42.809Z,10.94
2022-10-24T02:08:52.133Z,10.97
2022-10-24T02:11:00.292Z,10.97
2022-10-24T02:13:07.612Z,10.97
2022-10-24T02:15:17.228Z,10.92
2022-10-24T02:17:21.012Z,10.91
2022-10-24T02:19:26.419Z,10.88
2022-10-24T02:21:38.195Z,10.84
2022-10-24T02:23:47.425Z,10.80
2022-10-24T02:25:56.211Z,10.77
2022-10-24T02:28:06.270Z,10.69
2022-10-24T02:30:12.837Z,10.66
2022-10-24T02:32:20.837Z,10.68
2022-10-24T02:34:29.604Z,10.67
2022-10-24T02:36:36.613Z,10.61
2022-10-24T02:38:44.836Z,10.59
2022-10-24T02:40:51.963Z,10.55
2022-10-24T02:42:59.073Z,10.52
2022-10-24T02:45:03.633Z,10.49
2022-10-24T02:47:10.626Z,10.46
2022-10-24T02:49:15.042Z,10.47
2022-10-24T02:51:23.802Z,10.45
2022-10-24T02:53:28.055Z,10.46
2022-10-24T02:55:31.786Z,10.45
2022-10-24T02:57:35.651Z,10.47
2022-10-24T02:59:39.652Z,10.46
2022-10-24T03:01:43.370Z,10.45
2022-10-24T03:03:47.505Z,10.44
2022-10-24T03:05:51.041Z,10.42
2022-10-24T03:07:56.514Z,10.38
2022-10-24T03:10:00.062Z,10.36
2022-10-24T03:12:04.158Z,10.34
2022-10-24T03:14:07.993Z,10.34
2022-10-24T03:16:14.056Z,10.38
2022-10-24T03:18:18.172Z,10.43
2022-10-24T03:20:21.893Z,10.47
2022-10-24T03:22:29.948Z,10.52
2022-10-24T03:24:44.223Z,10.57
2022-10-24T03:26:58.617Z,10.59
2022-10-24T03:29:02.542Z,10.61
2022-10-24T03:31:06.866Z,10.65
2022-10-24T03:33:10.821Z,10.66
2022-10-24T03:35:14.671Z,10.68
2022-10-24T03:37:18.501Z,10.69
2022-10-24T03:39:22.268Z,10.69
2022-10-24T03:41:27.586Z,10.71
2022-10-24T03:43:31.215Z,10.74
2022-10-24T03:45:35.171Z,10.71
2022-10-24T03:47:39.224Z,10.72
2022-10-24T03:49:43.042Z,10.68
2022-10-24T03:51:46.810Z,10.68
2022-10-24T03:53:50.747Z,10.70
2022-10-24T03:55:55.143Z,10.71
2022-10-24T03:58:00.438Z,10.68
2022-10-24T04:00:04.333Z,10.69
2022-10-24T04:02:10.075Z,10.71
2022-10-24T04:04:13.904Z,10.70
2022-10-24T04:06:17.908Z,10.73
2022-10-24T04:08:22.223Z,10.77
2022-10-24T04:10:26.108Z,10.80
2022-10-24T04:12:29.686Z,10.82
2022-10-24T04:14:35.015Z,10.85
2022-10-24T04:16:38.732Z,10.88
2022-10-24T04:18:42.469Z,10.91
2022-10-24T04:20:46.503Z,10.85
2022-10-24T04:22:50.706Z,10.79
2022-10-24T04:24:54.517Z,10.79
2022-10-24T04:26:58.527Z,10.78
2022-10-24T04:29:02.563Z,10.80
2022-10-24T04:31:07.814Z,10.84
2022-10-24T04:33:12.209Z,10.83
2022-10-24T04:35:15.863Z,10.87
2022-10-24T04:37:19.606Z,10.88
2022-10-24T04:39:23.293Z,10.89
2022-10-24T04:41:26.922Z,10.88
2022-10-24T04:43:30.673Z,10.86
2022-10-24T04:45:34.380Z,10.80
2022-10-24T04:47:39.765Z,10.80
2022-10-24T04:49:43.646Z,10.77
2022-10-24T04:51:47.481Z,10.73
2022-10-24T04:53:51.737Z,10.70
2022-10-24T04:55:55.374Z,10.64
2022-10-24T04:57:59.327Z,10.59
2022-10-24T05:00:03.129Z,10.61
2022-10-24T05:02:06.879Z,10.64
2022-10-24T05:04:12.804Z,10.65
2022-10-24T05:06:16.864Z,10.68
2022-10-24T05:08:20.778Z,10.69
2022-10-24T05:10:24.461Z,10.71
2022-10-24T05:12:28.036Z,10.75
2022-10-24T05:14:31.926Z,10.79
2022-10-24T05:16:35.542Z,10.82
2022-10-24T05:18:39.381Z,10.87
2022-10-24T05:20:48.159Z,10.91
2022-10-24T05:22:52.687Z,10.92
2022-10-24T05:24:56.674Z,10.93
2022-10-24T05:27:00.608Z,10.95
2022-10-24T05:29:04.464Z,10.93
2022-10-24T05:31:08.378Z,10.92
2022-10-24T05:33:12.290Z,10.90
2022-10-24T05:35:16.057Z,10.90
2022-10-24T05:37:21.417Z,10.90
2022-10-24T05:39:25.228Z,10.91
2022-10-24T05:41:28.962Z,10.92
2022-10-24T05:43:32.936Z,10.94
2022-10-24T05:45:37.259Z,10.95
2022-10-24T05:47:40.907Z,10.96
2022-10-24T05:49:45.140Z,10.96
2022-10-24T05:51:48.716Z,10.96
2022-10-24T05:53:53.951Z,10.96
2022-10-24T05:55:57.630Z,10.97
2022-10-24T05:58:01.416Z,10.96
2022-10-24T06:00:07.263Z,10.97
2022-10-24T06:02:19.622Z,10.97
2022-10-24T06:04:23.318Z,10.99
2022-10-24T06:06:27.158Z,11.00
2022-10-24T06:08:30.833Z,10.99
2022-10-24T06:10:36.218Z,10.99
2022-10-24T06:12:40.943Z,10.98
2022-10-24T06:14:44.890Z,10.98
2022-10-24T06:16:48.488Z,10.97
2022-10-24T06:18:52.547Z,10.97
2022-10-24T06:20:56.390Z,10.94
2022-10-24T06:22:59.954Z,10.92
2022-10-24T06:25:03.635Z,10.91
2022-10-24T06:27:08.895Z,10.90
2022-10-24T06:29:12.803Z,10.88
2022-10-24T06:31:16.841Z,10.86
2022-10-24T06:33:20.378Z,10.85
2022-10-24T06:35:24.093Z,10.84
2022-10-24T06:37:27.842Z,10.82
2022-10-24T06:39:31.637Z,10.82
2022-10-24T06:41:34.920Z,10.81
2022-10-24T06:43:41.194Z,10.81
2022-10-24T06:45:44.417Z,10.80
2022-10-24T06:47:51.793Z,10.80
2022-10-24T06:49:57.268Z,10.78
2022-10-24T06:52:00.544Z,10.77
2022-10-24T06:54:03.925Z,10.75
2022-10-24T06:56:08.047Z,10.73
2022-10-24T06:58:11.329Z,10.73
2022-10-24T07:00:16.647Z,10.72
2022-10-24T07:02:20.124Z,10.72
2022-10-24T07:04:23.604Z,10.72
2022-10-24T07:06:29.008Z,10.70
2022-10-24T07:08:32.510Z,10.72
2022-10-24T07:10:36.010Z,10.72
2022-10-24T07:12:39.507Z,10.74
2022-10-24T07:14:43.160Z,10.75
2022-10-24T07:16:48.183Z,10.78
2022-10-24T07:18:51.976Z,10.81
2022-10-24T07:20:55.744Z,10.86
2022-10-24T07:22:59.387Z,10.90
2022-10-24T07:25:03.158Z,10.93
2022-10-24T07:27:06.782Z,10.97
2022-10-24T07:29:10.714Z,11.00
2022-10-24T07:31:15.260Z,11.04
2022-10-24T07:33:20.401Z,11.06
2022-10-24T07:35:24.226Z,11.08
2022-10-24T07:37:27.915Z,11.12
2022-10-24T07:39:31.686Z,11.15
2022-10-24T07:41:38.185Z,11.21
2022-10-24T07:43:42.025Z,11.27
2022-10-24T07:45:49.171Z,11.31
2022-10-24T07:47:55.540Z,11.38
2022-10-24T07:50:00.646Z,11.45
2022-10-24T07:52:04.371Z,11.49
2022-10-24T07:54:08.326Z,11.55
2022-10-24T07:56:14.623Z,11.55
2022-10-24T07:58:18.263Z,11.55
2022-10-24T08:00:22.648Z,11.56
2022-10-24T08:02:26.351Z,11.56
2022-10-24T08:04:30.660Z,11.56
2022-10-24T08:06:36.109Z,11.56
2022-10-24T08:08:40.539Z,11.58
2022-10-24T08:10:44.520Z,11.59
2022-10-24T08:12:48.465Z,11.57
2022-10-24T08:14:52.471Z,11.58
2022-10-24T08:16:56.405Z,11.57
2022-10-24T08:19:00.189Z,11.58
2022-10-24T08:21:06.711Z,11.58
2022-10-24T08:23:11.981Z,11.55
2022-10-24T08:25:15.545Z,11.56
2022-10-24T08:27:19.355Z,11.56
2022-10-24T08:29:23.899Z,11.55
2022-10-24T08:31:27.994Z,11.55
2022-10-24T08:33:31.727Z,11.55
2022-10-24T08:35:35.012Z,11.52
2022-10-24T08:37:39.519Z,11.52
2022-10-24T08:39:44.773Z,11.52
2022-10-24T08:41:53.717Z,11.52
2022-10-24T08:44:01.152Z,11.54
2022-10-24T08:46:12.005Z,11.55
2022-10-24T08:48:23.286Z,11.55
2022-10-24T08:50:30.480Z,11.56
2022-10-24T08:52:38.370Z,11.56
2022-10-24T08:54:46.292Z,11.58
2022-10-24T08:56:50.146Z,11.58
2022-10-24T08:58:53.689Z,11.59
2022-10-24T09:01:00.818Z,11.59
2022-10-24T09:03:11.641Z,11.62
2022-10-24T09:05:24.344Z,11.65
2022-10-24T09:07:28.548Z,11.69
2022-10-24T09:09:37.576Z,11.75
2022-10-24T09:11:49.447Z,11.78
2022-10-24T09:13:53.375Z,11.82
2022-10-24T09:15:57.228Z,11.83
2022-10-24T09:18:01.281Z,11.86
2022-10-24T09:20:20.448Z,11.90
2022-10-24T09:22:25.475Z,11.93
2022-10-24T09:24:39.272Z,11.98
2022-10-24T09:26:46.408Z,12.04
2022-10-24T09:28:51.020Z,12.09
2022-10-24T09:30:54.819Z,12.14
2022-10-24T09:33:01.181Z,12.19
2022-10-24T09:35:08.005Z,12.26
2022-10-24T09:37:44.699Z,12.36
2022-10-24T09:40:10.063Z,12.47
2022-10-24T09:42:24.495Z,12.54
2022-10-24T09:44:35.614Z,12.58
2022-10-24T09:46:46.140Z,12.63
2022-10-24T09:48:53.797Z,12.68
2022-10-24T09:50:58.802Z,12.71
2022-10-24T09:53:06.930Z,12.72
2022-10-24T09:55:19.269Z,12.72
2022-10-24T09:57:26.838Z,12.78
2022-10-24T09:59:41.769Z,12.83
2022-10-24T10:01:45.894Z,12.83
2022-10-24T10:04:08.424Z,12.84
2022-10-24T10:06:17.519Z,12.83
2022-10-24T10:08:23.753Z,12.82
2022-10-24T10:10:35.974Z,12.81
2022-10-24T10:12:43.542Z,12.82
2022-10-24T10:14:47.262Z,12.83
2022-10-24T10:17:01.865Z,12.85
2022-10-24T10:19:14.828Z,12.92
2022-10-24T10:21:21.210Z,13.01
2022-10-24T10:23:28.530Z,13.20
2022-10-24T10:25:34.550Z,13.42
2022-10-24T10:27:41.879Z,13.60
2022-10-24T10:29:45.778Z,13.69
2022-10-24T10:31:50.930Z,13.77
2022-10-24T10:34:14.982Z,13.90
2022-10-24T10:36:25.629Z,13.99
2022-10-24T10:38:55.468Z,14.05
2022-10-24T10:41:04.918Z,14.11
2022-10-24T10:43:31.387Z,14.11
2022-10-24T10:45:42.065Z,14.04
2022-10-24T10:47:59.870Z,13.98
2022-10-24T10:52:26.972Z,13.97
2022-10-24T10:54:55.226Z,13.99
2022-10-24T10:57:04.643Z,14.03
2022-10-24T10:59:25.866Z,14.08
2022-10-24T11:01:45.711Z,14.22
2022-10-24T11:03:57.879Z,14.30
2022-10-24T11:06:12.291Z,14.33
2022-10-24T11:08:29.460Z,14.30
2022-10-24T11:10:38.892Z,14.29
2022-10-24T11:12:45.314Z,14.31
2022-10-24T11:14:54.145Z,14.36
2022-10-24T11:17:03.658Z,14.48
2022-10-24T11:19:14.101Z,14.63
2022-10-24T11:21:21.457Z,14.78
2022-10-24T11:23:31.453Z,14.94
2022-10-24T11:25:40.234Z,15.08
2022-10-24T11:27:51.673Z,15.18
2022-10-24T11:30:00.479Z,15.19
2022-10-24T11:32:09.137Z,15.15
2022-10-24T11:34:17.413Z,15.06
2022-10-24T11:36:28.534Z,15.02
2022-10-24T11:38:33.926Z,15.06
2022-10-24T11:40:41.263Z,15.11
2022-10-24T11:42:52.814Z,15.16
2022-10-24T11:45:06.125Z,15.14
2022-10-24T11:47:17.916Z,15.11
2022-10-24T11:49:27.489Z,15.10
2022-10-24T11:51:38.781Z,15.10
2022-10-24T11:53:54.017Z,15.13
2022-10-24T11:56:04.192Z,15.18
2022-10-24T11:58:16.213Z,15.15
2022-10-24T12:00:26.223Z,15.12
2022-10-24T12:03:09.887Z,15.02
2022-10-24T12:05:31.416Z,14.97
2022-10-24T12:08:23.458Z,14.94
2022-10-24T12:10:44.190Z,14.85
2022-10-24T12:13:07.149Z,14.73
2022-10-24T12:15:32.250Z,14.58
2022-10-24T12:17:59.262Z,14.46
2022-10-24T12:20:03.803Z,14.42
2022-10-24T12:22:07.921Z,14.35
2022-10-24T12:24:23.170Z,14.29
2022-10-24T12:26:29.760Z,14.26
2022-10-24T12:28:34.076Z,14.19
2022-10-24T12:30:39.614Z,14.14
2022-10-24T12:32:47.535Z,14.07
2022-10-24T12:35:25.212Z,14.01
2022-10-24T12:37:36.655Z,13.95
2022-10-24T12:39:45.816Z,13.88
2022-10-24T12:41:51.561Z,13.92
2022-10-24T12:44:46.569Z,13.99
2022-10-24T12:46:57.290Z,14.01
2022-10-24T12:49:27.593Z,14.02
2022-10-24T12:51:32.279Z,14.01
2022-10-24T12:53:40.284Z,13.99
2022-10-24T12:56:07.323Z,13.99
2022-10-24T12:58:24.448Z,14.01
2022-10-24T13:00:30.960Z,14.06
2022-10-24T13:03:03.234Z,14.09
2022-10-24T13:05:19.327Z,14.13
2022-10-24T13:07:45.060Z,14.12
2022-10-24T13:10:03.470Z,14.13
2022-10-24T13:12:20.966Z,14.17
2022-10-24T13:14:39.457Z,14.20
2022-10-24T13:16:53.201Z,14.17
2022-10-24T13:19:11.499Z,14.10
2022-10-24T13:21:23.732Z,14.04
2022-10-24T13:23:29.603Z,14.00
2022-10-24T13:25:37.856Z,13.97
2022-10-24T13:27:41.457Z,13.94
2022-10-24T13:30:24.182Z,13.91
2022-10-24T13:32:35.214Z,13.96
2022-10-24T13:34:45.254Z,14.00
2022-10-24T13:36:52.777Z,14.06
2022-10-24T13:38:59.324Z,14.11
2022-10-24T13:41:05.033Z,14.19
2022-10-24T13:43:19.788Z,14.27
2022-10-24T13:45:29.658Z,14.32
2022-10-24T13:47:37.725Z,14.35
2022-10-24T13:49:52.250Z,14.38
2022-10-24T13:51:58.364Z,14.42
2022-10-24T13:54:09.609Z,14.47
2022-10-24T13:56:14.673Z,14.52
2022-10-24T13:58:21.108Z,14.55
2022-10-24T14:00:27.629Z,14.54
2022-10-24T14:02:34.508Z,14.54
2022-10-24T14:04:39.967Z,14.51
2022-10-24T14:06:45.861Z,14.50
2022-10-24T14:09:02.743Z,14.47
2022-10-24T14:11:14.309Z,14.47
2022-10-24T14:13:20.023Z,14.45
2022-10-24T14:15:25.917Z,14.46
2022-10-24T14:17:31.044Z,14.45
2022-10-24T14:19:38.426Z,14.44
2022-10-24T14:21:46.230Z,14.35
2022-10-24T14:23:58.578Z,14.26
2022-10-24T14:26:04.892Z,14.15
2022-10-24T14:28:15.969Z,14.06
2022-10-24T14:30:22.869Z,13.98
2022-10-24T14:32:28.311Z,13.86
2022-10-24T14:34:36.276Z,13.73
2022-10-24T14:36:40.986Z,13.62
2022-10-24T14:38:46.476Z,13.54
2022-10-24T14:41:01.175Z,13.54
2022-10-24T14:43:16.076Z,13.56
2022-10-24T14:45:27.582Z,13.57
2022-10-24T14:47:33.063Z,13.55
2022-10-24T14:49:38.336Z,13.50
2022-10-24T14:51:43.059Z,13.44
2022-10-24T14:53:50.379Z,13.40
2022-10-24T14:55:55.820Z,13.33
2022-10-24T14:57:59.416Z,13.31
2022-10-24T15:00:08.193Z,13.30
2022-10-24T15:02:22.346Z,13.29
2022-10-24T15:04:37.809Z,13.28
2022-10-24T15:06:42.859Z,13.26
2022-10-24T15:08:51.319Z,13.25
2022-10-24T15:11:18.473Z,13.21
2022-10-24T15:13:25.559Z,13.19
2022-10-24T15:15:34.264Z,13.16
2022-10-24T15:17:41.020Z,13.13
2022-10-24T15:19:45.849Z,13.07
2022-10-24T15:21:49.870Z,13.06
2022-10-24T15:23:57.385Z,13.04
2022-10-24T15:26:09.379Z,13.03
2022-10-24T15:28:54.135Z,13.02
2022-10-24T15:30:58.005Z,13.01
2022-10-24T15:33:03.786Z,12.98
2022-10-24T15:35:08.567Z,12.97
2022-10-24T15:37:19.793Z,12.95
2022-10-24T15:39:26.413Z,12.93
2022-10-24T15:41:30.554Z,12.92
2022-10-24T15:43:34.947Z,12.91
2022-10-24T15:45:38.768Z,12.91
2022-10-24T15:47:42.434Z,12.91
2022-10-24T15:49:45.991Z,12.94
2022-10-24T15:51:51.009Z,12.94
2022-10-24T15:53:55.420Z,12.95
2022-10-24T15:56:00.841Z,12.96
2022-10-24T15:58:04.618Z,12.96
2022-10-24T16:00:10.096Z,12.95
2022-10-24T16:02:21.167Z,12.91
2022-10-24T16:04:26.827Z,12.87
2022-10-24T16:06:31.392Z,12.84
2022-10-24T16:08:36.461Z,12.83
2022-10-24T16:10:40.854Z,12.80
2022-10-24T16:12:47.171Z,12.78
2022-10-24T16:14:52.065Z,12.76
2022-10-24T16:16:56.578Z,12.74
2022-10-24T16:19:00.377Z,12.70
2022-10-24T16:21:05.256Z,12.67
2022-10-24T16:23:10.532Z,12.63
2022-10-24T16:25:17.281Z,12.62
2022-10-24T16:27:21.538Z,12.59
2022-10-24T16:29:27.130Z,12.56
2022-10-24T16:31:31.088Z,12.54
2022-10-24T16:33:35.635Z,12.52
2022-10-24T16:35:41.367Z,12.49
2022-10-24T16:38:54.578Z,12.45
2022-10-24T16:40:58.902Z,12.41
2022-10-24T16:43:02.478Z,12.38
2022-10-24T16:45:08.877Z,12.33
2022-10-24T16:47:12.877Z,12.30
2022-10-24T16:49:16.880Z,12.25
2022-10-24T16:51:27.921Z,12.24
2022-10-24T16:53:32.383Z,12.22
2022-10-24T16:55:36.509Z,12.18
2022-10-24T16:57:41.881Z,12.17
2022-10-24T16:59:45.791Z,12.15
2022-10-24T17:01:51.502Z,12.12
2022-10-24T17:03:56.190Z,12.09
2022-10-24T17:06:00.852Z,12.06
2022-10-24T17:08:05.329Z,12.04
2022-10-24T17:10:12.153Z,12.01
2022-10-24T17:12:20.316Z,11.99
2022-10-24T17:14:25.084Z,11.95
2022-10-24T17:16:29.273Z,11.93
2022-10-24T17:18:34.893Z,11.91
2022-10-24T17:20:39.615Z,11.90
2022-10-24T17:22:47.442Z,11.90
2022-10-24T17:24:52.202Z,11.88
2022-10-24T17:26:57.112Z,11.88
2022-10-24T17:29:02.755Z,11.84
2022-10-24T17:31:08.295Z,11.82
2022-10-24T17:33:14.071Z,11.81
2022-10-24T17:35:23.476Z,11.80
2022-10-24T17:37:40.801Z,11.78
2022-10-24T17:39:51.172Z,11.76
2022-10-24T17:41:55.665Z,11.76
2022-10-24T17:44:01.814Z,11.74
2022-10-24T17:46:06.854Z,11.73
2022-10-24T17:48:13.237Z,11.72
2022-10-24T17:50:20.749Z,11.72
2022-10-24T17:52:26.041Z,11.70
2022-10-24T17:54:30.680Z,11.68
2022-10-24T17:56:37.687Z,11.70
2022-10-24T17:58:42.754Z,11.68
2022-10-24T18:00:46.923Z,11.68
2022-10-24T18:02:52.850Z,11.66
2022-10-24T18:04:57.386Z,11.64
2022-10-24T18:07:02.502Z,11.63
2022-10-24T18:09:06.279Z,11.62
2022-10-24T18:11:10.539Z,11.62
2022-10-24T18:13:14.254Z,11.61
2022-10-24T18:15:21.225Z,11.59
2022-10-24T18:17:24.930Z,11.59
2022-10-24T18:19:28.775Z,11.59
2022-10-24T18:21:32.570Z,11.57
2022-10-24T18:23:38.611Z,11.57
2022-10-24T18:25:42.978Z,11.58
2022-10-24T18:27:46.909Z,11.56
2022-10-24T18:29:50.613Z,11.56
2022-10-24T18:31:54.348Z,11.56
2022-10-24T18:34:04.735Z,11.56
2022-10-24T18:36:12.632Z,11.55
2022-10-24T18:38:19.023Z,11.54
2022-10-24T18:40:25.563Z,11.53
2022-10-24T18:42:38.978Z,11.54
2022-10-24T18:44:48.741Z,11.54
2022-10-24T18:46:56.122Z,11.51
2022-10-24T18:49:00.782Z,11.51
2022-10-24T18:51:05.578Z,11.52
2022-10-24T18:53:21.499Z,11.53
2022-10-24T18:55:30.546Z,11.51
2022-10-24T18:57:37.161Z,11.51
2022-10-24T18:59:41.927Z,11.51
2022-10-24T19:02:01.450Z,11.53
2022-10-24T19:04:17.728Z,11.52
2022-10-24T19:06:26.318Z,11.54
2022-10-24T19:08:31.307Z,11.52
2022-10-24T19:10:37.118Z,11.51
2022-10-24T19:12:41.490Z,11.51
2022-10-24T19:14:46.805Z,11.51
2022-10-24T19:16:54.838Z,11.51
2022-10-24T19:19:03.360Z,11.51
2022-10-24T19:21:08.563Z,11.51
2022-10-24T19:23:14.339Z,11.52
2022-10-24T19:25:20.647Z,11.52
2022-10-24T19:27:28.128Z,11.51
2022-10-24T19:29:33.469Z,11.52
2022-10-24T19:31:39.483Z,11.51
2022-10-24T19:33:44.510Z,11.51
2022-10-24T19:35:49.472Z,11.51
2022-10-24T19:37:53.761Z,11.52
2022-10-24T19:40:00.110Z,11.54
2022-10-24T19:42:05.877Z,11.54
2022-10-24T19:44:12.036Z,11.54
2022-10-24T19:46:20.531Z,11.55
2022-10-24T19:48:26.739Z,11.54
2022-10-24T19:50:31.993Z,11.55
2022-10-24T19:52:37.567Z,11.55
2022-10-24T19:54:42.557Z,11.55
2022-10-24T19:56:47.906Z,11.54
2022-10-24T19:58:52.594Z,11.54
2022-10-24T20:01:07.296Z,11.54
2022-10-24T20:03:12.117Z,11.55
2022-10-24T20:05:17.988Z,11.55
2022-10-24T20:07:23.923Z,11.54
2022-10-24T20:09:32.040Z,11.54
2022-10-24T20:11:37.143Z,11.54
2022-10-24T20:13:41.825Z,11.53
2022-10-24T20:15:46.023Z,11.56
2022-10-24T20:17:51.622Z,11.60
2022-10-24T20:19:55.701Z,11.60
2022-10-24T20:22:02.314Z,11.62
2022-10-24T20:24:07.970Z,11.64
2022-10-24T20:26:15.382Z,11.65
2022-10-24T20:28:19.447Z,11.68
2022-10-24T20:30:23.457Z,11.68
2022-10-24T20:32:27.602Z,11.72
2022-10-24T20:34:32.886Z,11.74
2022-10-24T20:36:37.899Z,11.75
2022-10-24T20:38:41.953Z,11.75
2022-10-24T20:40:45.850Z,11.74
2022-10-24T20:42:49.971Z,11.72
2022-10-24T20:44:53.831Z,11.69
2022-10-24T20:46:59.396Z,11.68
2022-10-24T20:49:03.703Z,11.64
2022-10-24T20:51:11.780Z,11.62
2022-10-24T20:53:16.176Z,11.60
2022-10-24T20:55:31.809Z,11.58
2022-10-24T20:57:43.872Z,11.55
2022-10-24T20:59:47.921Z,11.56
2022-10-24T21:01:51.906Z,11.55
2022-10-24T21:03:58.327Z,11.55
2022-10-24T21:06:02.195Z,11.54
2022-10-24T21:08:08.197Z,11.51
2022-10-24T21:10:11.855Z,11.51
2022-10-24T21:12:15.810Z,11.49
2022-10-24T21:14:21.086Z,11.49
2022-10-24T21:16:25.718Z,11.50
2022-10-24T21:18:29.848Z,11.52
2022-10-24T21:20:34.719Z,11.52
2022-10-24T21:22:38.860Z,11.51
2022-10-24T21:24:44.735Z,11.50
2022-10-24T21:26:49.100Z,11.50
2022-10-24T21:28:59.559Z,11.48
2022-10-24T21:31:15.429Z,11.47
2022-10-24T21:33:19.969Z,11.46
2022-10-24T21:35:24.301Z,11.45
2022-10-24T21:37:28.898Z,11.44
2022-10-24T21:39:33.476Z,11.43
2022-10-24T21:41:39.249Z,11.43
2022-10-24T21:43:44.714Z,11.41
2022-10-24T21:45:48.804Z,11.40
2022-10-24T21:47:52.956Z,11.40
2022-10-24T21:49:57.463Z,11.39
2022-10-24T21:52:02.295Z,11.37
2022-10-24T21:54:09.550Z,11.36
2022-10-24T21:56:16.635Z,11.36
2022-10-24T21:58:22.347Z,11.34
2022-10-24T22:00:26.576Z,11.33
2022-10-24T22:02:30.890Z,11.33
2022-10-24T22:04:34.871Z,11.32
2022-10-24T22:06:39.134Z,11.30
2022-10-24T22:08:43.617Z,11.28
2022-10-24T22:10:47.762Z,11.26
2022-10-24T22:12:51.761Z,11.25
2022-10-24T22:14:57.601Z,11.24
2022-10-24T22:17:01.680Z,11.23
2022-10-24T22:19:07.224Z,11.21
2022-10-24T22:21:22.518Z,11.22
2022-10-24T22:23:27.133Z,11.21
2022-10-24T22:25:30.923Z,11.21
2022-10-24T22:27:35.066Z,11.20
2022-10-24T22:29:38.868Z,11.20
2022-10-24T22:31:45.212Z,11.20
2022-10-24T22:33:49.060Z,11.18
2022-10-24T22:36:00.455Z,11.17
2022-10-24T22:38:05.053Z,11.15
2022-10-24T22:40:21.384Z,11.14
2022-10-24T22:42:25.746Z,11.13
2022-10-24T22:44:30.032Z,11.11
2022-10-24T22:47:00.439Z,11.11
2022-10-24T22:51:17.716Z,11.09
2022-10-24T22:53:25.245Z,11.08
2022-10-24T22:55:34.355Z,11.06
2022-10-24T22:57:38.600Z,11.06
2022-10-24T22:59:42.955Z,11.05
2022-10-24T23:02:01.166Z,11.06
2022-10-24T23:04:17.066Z,11.04
2022-10-24T23:06:28.425Z,11.03
2022-10-24T23:08:36.975Z,11.02
2022-10-24T23:10:41.282Z,11.01
2022-10-24T23:12:45.627Z,11.00
2022-10-24T23:14:51.051Z,10.99
2022-10-24T23:16:59.612Z,10.98
2022-10-24T23:19:07.675Z,10.96
2022-10-24T23:21:20.434Z,10.97
2022-10-24T23:23:29.207Z,10.96
2022-10-24T23:25:34.000Z,10.96
2022-10-24T23:27:39.994Z,10.95
2022-10-24T23:29:48.257Z,10.93
2022-10-24T23:31:52.351Z,10.91
2022-10-24T23:33:58.150Z,10.86
2022-10-24T23:36:02.171Z,10.87
2022-10-24T23:38:06.347Z,10.86
2022-10-24T23:40:22.761Z,10.87
2022-10-24T23:42:27.255Z,10.86
2022-10-24T23:44:31.499Z,10.87
2022-10-24T23:46:39.238Z,10.86
2022-10-24T23:48:52.403Z,10.83
2022-10-24T23:51:04.769Z,10.83
2022-10-24T23:53:21.992Z,10.83
2022-10-24T23:55:26.318Z,10.82
2022-10-24T23:57:30.404Z,10.81
2022-10-24T23:59:34.069Z,10.80
